Time;durP1;ratioP1;P1;durP2;ratioP2;P2;SDS_P1;SDS_P2;PMS_P1;PMS_P2;Temp;Humidity;BMP_temperature;BMP_pressure;BME280_temperature;BME280_humidity;BME280_pressure;Samples;Min_cycle;Max_cycle;Signal;HPM_P1;HPM_P2
2022/12/17 13:08:07;;;;;;;46.63;21.08;;;0.50;99.90;;;;;;5112967;27;20039;-89
2022/12/17 13:10:34;;;;;;;43.17;19.50;;;0.50;99.90;;;;;;5112545;28;20044;-89
2022/12/17 13:13:33;;;;;;;45.92;20.23;;;0.50;99.90;;;;;;5075639;28;20043;-89
2022/12/17 13:16:19;;;;;;;46.28;20.23;;;0.50;99.90;;;;;;5107381;27;20066;-89
2022/12/17 13:18:45;;;;;;;44.10;20.98;;;0.40;99.90;;;;;;5113102;28;20377;-89
2022/12/17 13:21:13;;;;;;;44.58;18.90;;;0.30;99.90;;;;;;5130791;28;20042;-89
2022/12/17 13:23:39;;;;;;;49.92;20.35;;;0.30;99.90;;;;;;5095669;28;20069;-89
2022/12/17 13:26:29;;;;;;;47.63;20.13;;;0.30;99.90;;;;;;5112628;28;20031;-90
2022/12/17 13:28:54;;;;;;;49.40;21.67;;;0.20;99.90;;;;;;5097002;28;20047;-89
2022/12/17 13:31:26;;;;;;;41.78;18.48;;;0.20;99.90;;;;;;5111028;28;20067;-89
2022/12/17 13:34:01;;;;;;;40.05;17.33;;;0.20;99.90;;;;;;5092211;28;20126;-89
2022/12/17 13:36:53;;;;;;;50.08;21.13;;;0.10;99.90;;;;;;5092295;28;20519;-89
2022/12/17 13:39:47;;;;;;;46.05;19.02;;;0.10;99.90;;;;;;5075709;28;20044;-89
2022/12/17 13:42:31;;;;;;;43.67;19.85;;;0.10;99.90;;;;;;5095980;28;20043;-89
2022/12/17 13:44:57;;;;;;;46.15;21.58;;;0.10;99.90;;;;;;5123023;27;20577;-89
2022/12/17 13:47:26;;;;;;;50.38;22.77;;;0.10;99.90;;;;;;5114307;28;20043;-89
2022/12/17 13:49:55;;;;;;;40.90;18.88;;;0.00;99.90;;;;;;5108947;27;20031;-89
2022/12/17 13:52:24;;;;;;;44.70;18.23;;;0.00;99.90;;;;;;5135650;27;20039;-89
2022/12/17 13:54:50;;;;;;;58.25;21.02;;;0.10;99.90;;;;;;5116765;27;20039;-89
2022/12/17 13:57:17;;;;;;;50.35;20.40;;;0.00;99.90;;;;;;5128623;27;20057;-89
2022/12/17 13:59:54;;;;;;;53.50;21.40;;;0.10;99.90;;;;;;5123898;27;20057;-88
2022/12/17 14:02:29;;;;;;;48.95;18.77;;;0.00;99.90;;;;;;5134471;27;20031;-89
2022/12/17 14:04:57;;;;;;;52.85;19.92;;;0.00;99.90;;;;;;5121058;27;20035;-89
2022/12/17 14:07:24;;;;;;;49.28;18.52;;;0.00;99.90;;;;;;5134336;27;20439;-88
2022/12/17 14:09:50;;;;;;;50.47;19.90;;;-0.10;99.90;;;;;;5131686;27;20141;-88
2022/12/17 14:12:20;;;;;;;48.83;18.13;;;-0.10;99.90;;;;;;5124866;27;20478;-89
2022/12/17 14:14:49;;;;;;;45.45;19.38;;;0.00;99.90;;;;;;5114212;28;20047;-89
2022/12/17 14:17:22;;;;;;;51.58;19.90;;;-0.10;99.90;;;;;;5113118;28;20043;-88
2022/12/17 14:20:09;;;;;;;54.25;19.55;;;-0.10;99.90;;;;;;5113719;28;20100;-88
2022/12/17 14:22:37;;;;;;;53.65;18.45;;;-0.10;99.90;;;;;;5095168;28;20051;-88
2022/12/17 14:25:12;;;;;;;46.95;17.45;;;-0.10;99.90;;;;;;5113281;28;20512;-89
2022/12/17 14:27:40;;;;;;;53.85;20.15;;;-0.20;99.90;;;;;;5095047;28;20447;-88
2022/12/17 14:30:24;;;;;;;52.67;19.23;;;-0.20;99.90;;;;;;5113566;28;20039;-89
2022/12/17 14:32:50;;;;;;;48.58;19.83;;;-0.20;99.90;;;;;;5111867;27;20048;-89
2022/12/17 14:35:30;;;;;;;44.33;17.40;;;-0.30;99.90;;;;;;5112888;28;20036;-89
2022/12/17 14:37:56;;;;;;;49.58;21.25;;;-0.30;99.90;;;;;;5094233;28;20496;-88
2022/12/17 14:40:24;;;;;;;46.33;18.42;;;-0.40;99.90;;;;;;5113301;28;20035;-88
2022/12/17 14:42:51;;;;;;;46.25;17.75;;;-0.50;99.90;;;;;;5093987;28;20046;-88
2022/12/17 14:45:24;;;;;;;48.20;19.38;;;-0.50;99.90;;;;;;5112476;28;20453;-88
2022/12/17 14:48:03;;;;;;;53.50;19.73;;;-0.50;99.90;;;;;;5140410;27;20530;-88
2022/12/17 14:50:32;;;;;;;51.90;21.20;;;-0.50;99.90;;;;;;5134417;27;20042;-88
2022/12/17 14:53:01;;;;;;;55.05;20.08;;;-0.50;99.90;;;;;;5144541;27;20046;-88
2022/12/17 14:55:38;;;;;;;46.22;18.67;;;-0.50;99.90;;;;;;5152559;27;20552;-89
2022/12/17 14:58:08;;;;;;;49.30;18.90;;;-0.50;99.90;;;;;;5133643;27;20118;-88
2022/12/17 15:00:57;;;;;;;55.67;19.70;;;-0.50;99.90;;;;;;5133193;27;20524;-89
2022/12/17 15:03:25;;;;;;;53.45;19.98;;;-0.50;99.90;;;;;;5114151;27;20458;-88
2022/12/17 15:06:02;;;;;;;51.15;19.02;;;-0.60;99.90;;;;;;5133119;27;20042;-88
2022/12/17 15:08:35;;;;;;;43.53;17.30;;;-0.60;99.90;;;;;;5120237;27;20050;-88
2022/12/17 15:11:01;;;;;;;46.55;17.30;;;-0.60;99.90;;;;;;5112171;28;20036;-89
2022/12/17 15:13:26;;;;;;;44.17;16.95;;;-0.70;99.90;;;;;;5125683;27;20084;-88
2022/12/17 15:15:52;;;;;;;44.97;19.30;;;-0.70;99.90;;;;;;5132870;27;20031;-88
2022/12/17 15:18:17;;;;;;;48.03;19.58;;;-0.80;99.90;;;;;;5125933;27;20043;-88
2022/12/17 15:20:43;;;;;;;55.58;19.58;;;-0.80;99.90;;;;;;5130008;27;20045;-88
2022/12/17 15:23:17;;;;;;;51.47;19.88;;;-0.80;99.90;;;;;;5132357;27;20100;-89
2022/12/17 15:25:43;;;;;;;48.30;18.90;;;-0.90;99.90;;;;;;5115768;27;20075;-89
2022/12/17 15:28:10;;;;;;;44.80;17.42;;;-0.90;99.90;;;;;;5111571;28;20413;-89
2022/12/17 15:30:36;;;;;;;51.45;19.15;;;-0.80;99.90;;;;;;5111000;28;20043;-88
2022/12/17 15:33:05;;;;;;;51.80;18.38;;;-0.90;99.90;;;;;;5110546;28;20046;-88
2022/12/17 15:35:31;;;;;;;51.13;20.35;;;-0.90;99.90;;;;;;5111114;28;20044;-87
2022/12/17 15:37:56;;;;;;;46.92;19.58;;;-0.90;99.90;;;;;;5111939;28;20051;-89
2022/12/17 15:40:22;;;;;;;50.53;20.70;;;-0.90;99.90;;;;;;5112103;28;20047;-88
2022/12/17 15:45:32;;;;;;;58.13;21.35;;;-0.90;99.90;;;;;;5116417;27;20055;-88
2022/12/17 15:47:58;;;;;;;60.40;22.10;;;-0.90;99.90;;;;;;5093116;28;20116;-89
2022/12/17 15:50:23;;;;;;;48.67;20.00;;;-0.90;99.90;;;;;;5110433;27;20034;-88
2022/12/17 15:52:49;;;;;;;54.90;21.60;;;-0.90;99.90;;;;;;5113536;27;20043;-88
2022/12/17 15:55:15;;;;;;;51.45;22.50;;;-0.90;99.90;;;;;;5085696;27;20039;-88
2022/12/17 15:57:41;;;;;;;49.83;20.15;;;-0.90;99.90;;;;;;5112111;28;20043;-89
2022/12/17 16:00:07;;;;;;;48.03;17.77;;;-0.90;99.90;;;;;;5093961;28;20040;-89
2022/12/17 16:02:32;;;;;;;52.35;20.10;;;-0.90;99.90;;;;;;5110743;28;20051;-88
2022/12/17 16:04:58;;;;;;;48.88;18.98;;;-0.90;99.90;;;;;;5111443;28;20035;-88
2022/12/17 16:07:24;;;;;;;56.47;20.90;;;-1.00;99.90;;;;;;5076399;28;20647;-89
2022/12/17 16:09:49;;;;;;;52.13;19.90;;;-0.90;99.90;;;;;;5128245;27;20046;-88
2022/12/17 16:12:15;;;;;;;52.83;21.40;;;-0.90;99.90;;;;;;5131579;27;20031;-88
2022/12/17 16:14:40;;;;;;;48.15;20.73;;;-1.00;99.90;;;;;;5117537;27;20035;-89
2022/12/17 16:17:06;;;;;;;46.22;21.75;;;-1.00;99.90;;;;;;5111678;28;20078;-88
2022/12/17 16:19:31;;;;;;;53.22;22.00;;;-1.00;99.90;;;;;;5114140;27;20815;-88
2022/12/17 16:21:57;;;;;;;52.90;22.63;;;-1.00;99.90;;;;;;5131377;27;20110;-88
2022/12/17 16:24:23;;;;;;;49.22;21.10;;;-1.00;99.90;;;;;;5131608;27;20035;-88
2022/12/17 16:26:48;;;;;;;61.25;23.30;;;-1.00;99.90;;;;;;5116596;27;20046;-89
2022/12/17 16:29:14;;;;;;;48.78;22.13;;;-0.90;99.90;;;;;;5075358;28;20044;-89
2022/12/17 16:31:39;;;;;;;49.72;21.45;;;-0.90;99.90;;;;;;5098643;27;20043;-88
2022/12/17 16:34:09;;;;;;;51.95;23.65;;;-1.00;99.90;;;;;;5078461;28;20043;-89
2022/12/17 16:36:35;;;;;;;49.17;23.13;;;-1.00;99.90;;;;;;5111367;27;20495;-89
2022/12/17 16:39:01;;;;;;;52.15;21.63;;;-0.90;99.90;;;;;;5119033;27;20036;-88
2022/12/17 16:41:26;;;;;;;52.65;23.70;;;-0.90;99.90;;;;;;5092589;28;20084;-89
2022/12/17 16:43:52;;;;;;;50.72;21.15;;;-0.90;99.90;;;;;;5092467;28;20469;-88
2022/12/17 16:46:27;;;;;;;54.38;23.13;;;-0.90;99.90;;;;;;5109260;27;20083;-89
2022/12/17 16:48:54;;;;;;;52.30;23.65;;;-0.90;99.90;;;;;;5130331;27;20386;-88
2022/12/17 16:51:22;;;;;;;55.20;25.90;;;-0.90;99.90;;;;;;5130381;27;20035;-88
2022/12/17 16:53:48;;;;;;;52.60;25.20;;;-1.00;99.90;;;;;;5095092;27;20057;-88
2022/12/17 16:56:26;;;;;;;43.97;20.90;;;-1.00;99.90;;;;;;5123416;27;20026;-88
2022/12/17 16:58:53;;;;;;;56.25;24.80;;;-1.00;99.90;;;;;;5114965;27;20045;-88
2022/12/17 17:01:24;;;;;;;57.35;24.67;;;-1.00;99.90;;;;;;5140556;27;20488;-89
2022/12/17 17:03:49;;;;;;;57.67;27.25;;;-1.00;99.90;;;;;;5136487;27;20039;-89
2022/12/17 17:06:17;;;;;;;51.90;23.27;;;-1.00;99.90;;;;;;5138762;27;20035;-88
2022/12/17 17:08:43;;;;;;;55.33;23.60;;;-1.10;99.90;;;;;;5121763;27;20407;-88
2022/12/17 17:11:18;;;;;;;50.33;22.98;;;-1.00;99.90;;;;;;5137588;27;20119;-89
2022/12/17 17:13:43;;;;;;;56.53;24.80;;;-1.00;99.90;;;;;;5140573;27;20042;-88
2022/12/17 17:16:10;;;;;;;50.95;23.67;;;-1.10;99.90;;;;;;5138817;27;20031;-88
2022/12/17 17:18:37;;;;;;;49.15;23.13;;;-1.10;99.90;;;;;;5132454;27;20125;-89
2022/12/17 17:21:18;;;;;;;58.40;25.35;;;-1.10;99.90;;;;;;5138030;27;20031;-87
2022/12/17 17:23:49;;;;;;;59.22;26.48;;;-1.10;99.90;;;;;;5110061;28;20385;-88
2022/12/17 17:26:15;;;;;;;54.00;25.75;;;-1.10;99.90;;;;;;5092211;28;20557;-88
2022/12/17 17:28:41;;;;;;;50.85;24.40;;;-1.10;99.90;;;;;;5091342;28;20078;-88
2022/12/17 17:31:10;;;;;;;53.03;23.38;;;-1.20;99.90;;;;;;5110146;28;20063;-88
2022/12/17 17:33:38;;;;;;;51.08;23.33;;;-1.20;99.90;;;;;;5109726;28;20397;-87
2022/12/17 17:36:09;;;;;;;57.80;25.05;;;-1.30;99.90;;;;;;5110138;28;20032;-88
2022/12/17 17:38:36;;;;;;;70.90;30.33;;;-1.30;99.90;;;;;;5091421;28;20408;-87
2022/12/17 17:41:03;;;;;;;60.30;25.75;;;-1.30;99.90;;;;;;5127612;28;20066;-88
2022/12/17 17:43:30;;;;;;;55.13;24.17;;;-1.30;99.90;;;;;;5130593;28;20042;-88
2022/12/17 17:46:02;;;;;;;55.00;24.70;;;-1.30;99.90;;;;;;5110742;28;20036;-88
2022/12/17 17:48:31;;;;;;;61.53;27.63;;;-1.40;99.90;;;;;;5095404;28;20488;-88
2022/12/17 17:51:11;;;;;;;60.83;27.38;;;-1.30;99.90;;;;;;5130644;28;20047;-88
2022/12/17 17:53:37;;;;;;;54.80;25.42;;;-1.40;99.90;;;;;;5112385;28;20050;-88
2022/12/17 17:56:05;;;;;;;54.05;24.17;;;-1.30;99.90;;;;;;5130573;28;20031;-88
2022/12/17 17:58:31;;;;;;;67.53;28.73;;;-1.30;99.90;;;;;;5114521;28;20082;-87
2022/12/17 18:00:57;;;;;;;66.15;29.33;;;-1.30;99.90;;;;;;5090233;28;20047;-88
2022/12/17 18:03:23;;;;;;;62.40;25.40;;;-1.30;99.90;;;;;;5105088;28;20038;-87
2022/12/17 18:05:49;;;;;;;58.75;25.60;;;-1.30;99.90;;;;;;5133206;27;20465;-88
2022/12/17 18:08:14;;;;;;;61.85;26.65;;;-1.30;99.90;;;;;;5118233;27;20047;-88
2022/12/17 18:10:40;;;;;;;63.55;28.27;;;-1.30;99.90;;;;;;5132494;27;20065;-87
2022/12/17 18:15:51;;;;;;;64.90;25.45;;;-1.30;99.90;;;;;;5134456;27;20495;-87
2022/12/17 18:18:16;;;;;;;65.53;30.98;;;-1.30;99.90;;;;;;5135036;27;20039;-88
2022/12/17 18:20:42;;;;;;;62.22;26.25;;;-1.30;99.90;;;;;;5136532;27;20481;-87
2022/12/17 18:23:07;;;;;;;61.72;26.00;;;-1.30;99.90;;;;;;5133936;27;20049;-87
2022/12/17 18:25:33;;;;;;;74.63;30.33;;;-1.30;99.90;;;;;;5138248;27;20043;-87
2022/12/17 18:27:59;;;;;;;64.95;29.00;;;-1.30;99.90;;;;;;5135583;27;20118;-87
2022/12/17 18:30:25;;;;;;;63.63;27.42;;;-1.30;99.90;;;;;;5140275;27;20062;-87
2022/12/17 18:32:50;;;;;;;64.63;28.08;;;-1.30;99.90;;;;;;5140450;27;20034;-87
2022/12/17 18:35:16;;;;;;;58.58;24.88;;;-1.30;99.90;;;;;;5123073;27;20035;-87
2022/12/17 18:37:41;;;;;;;64.93;27.52;;;-1.30;99.90;;;;;;5141529;27;20038;-87
2022/12/17 18:40:07;;;;;;;61.90;25.38;;;-1.30;99.90;;;;;;5117940;27;20027;-87
2022/12/17 18:45:18;;;;;;;56.70;26.33;;;-1.30;99.90;;;;;;5139611;27;20499;-88
2022/12/17 18:47:44;;;;;;;66.80;28.65;;;-1.30;99.90;;;;;;5140852;27;20027;-87
2022/12/17 18:50:11;;;;;;;62.65;27.30;;;-1.30;99.90;;;;;;5140293;27;20091;-87
2022/12/17 18:52:37;;;;;;;68.55;28.58;;;-1.30;99.90;;;;;;5140939;27;20027;-88
2022/12/17 18:55:03;;;;;;;58.20;26.83;;;-1.30;99.90;;;;;;5135945;27;20039;-87
2022/12/17 18:57:28;;;;;;;66.20;26.92;;;-1.30;99.90;;;;;;5140666;27;20043;-87
2022/12/17 18:59:54;;;;;;;52.97;22.25;;;-1.30;99.90;;;;;;5143866;27;20376;-88
2022/12/17 19:02:19;;;;;;;53.03;21.45;;;-1.30;99.90;;;;;;5151807;27;20069;-87
2022/12/17 19:04:45;;;;;;;56.95;24.75;;;-1.30;99.90;;;;;;5132945;27;20050;-87
2022/12/17 19:07:10;;;;;;;54.53;24.35;;;-1.40;99.90;;;;;;5130104;27;20055;-87
2022/12/17 19:09:38;;;;;;;60.63;27.92;;;-1.40;99.90;;;;;;5130387;27;20031;-87
2022/12/17 19:12:05;;;;;;;66.65;27.42;;;-1.40;99.90;;;;;;5110720;27;20039;-87
2022/12/17 19:14:32;;;;;;;65.53;28.30;;;-1.40;99.90;;;;;;5110175;28;20040;-87
2022/12/17 19:16:58;;;;;;;70.25;28.77;;;-1.40;99.90;;;;;;5109713;28;20069;-87
2022/12/17 19:19:24;;;;;;;56.70;25.30;;;-1.40;99.90;;;;;;5109998;28;20592;-87
2022/12/17 19:21:53;;;;;;;62.45;26.02;;;-1.40;99.90;;;;;;5110300;28;20044;-87
2022/12/17 19:24:20;;;;;;;64.95;27.88;;;-1.40;99.90;;;;;;5122017;27;20473;-88
2022/12/17 19:26:47;;;;;;;61.30;25.85;;;-1.40;99.90;;;;;;5133703;27;20154;-88
2022/12/17 19:29:14;;;;;;;62.05;29.05;;;-1.40;99.90;;;;;;5133282;27;20054;-87
2022/12/17 19:31:40;;;;;;;65.65;26.55;;;-1.40;99.90;;;;;;5133475;27;20054;-88
2022/12/17 19:34:08;;;;;;;56.25;23.15;;;-1.40;99.90;;;;;;5115694;27;20049;-88
2022/12/17 19:36:35;;;;;;;60.33;24.15;;;-1.50;99.90;;;;;;5105236;27;20092;-88
2022/12/17 19:39:04;;;;;;;63.90;25.50;;;-1.50;99.90;;;;;;5132587;27;20396;-88
2022/12/17 19:41:31;;;;;;;64.05;25.58;;;-1.50;99.90;;;;;;5102340;28;20123;-88
2022/12/17 19:44:02;;;;;;;58.50;23.90;;;-1.50;99.90;;;;;;5112908;28;20040;-88
2022/12/17 19:46:29;;;;;;;63.58;25.88;;;-1.50;99.90;;;;;;5099265;28;20035;-88
2022/12/17 19:48:55;;;;;;;67.95;25.38;;;-1.60;99.90;;;;;;5112427;27;20063;-87
2022/12/17 19:51:23;;;;;;;66.97;26.63;;;-1.60;99.90;;;;;;5094344;28;20499;-88
2022/12/17 19:53:50;;;;;;;66.15;25.88;;;-1.60;99.90;;;;;;5122526;27;20098;-88
2022/12/17 19:56:17;;;;;;;64.05;26.08;;;-1.60;99.90;;;;;;5133038;27;20074;-88
2022/12/17 19:58:44;;;;;;;64.60;28.08;;;-1.60;99.90;;;;;;5128807;27;20586;-87
2022/12/17 20:01:13;;;;;;;61.60;24.92;;;-1.50;99.90;;;;;;5127368;27;20091;-87
2022/12/17 20:03:40;;;;;;;66.40;27.92;;;-1.50;99.90;;;;;;5132433;27;20556;-88
2022/12/17 20:06:06;;;;;;;62.50;24.75;;;-1.60;99.90;;;;;;5132127;27;20405;-88
2022/12/17 20:08:33;;;;;;;65.78;26.40;;;-1.50;99.90;;;;;;5131954;27;20552;-88
2022/12/17 20:11:00;;;;;;;68.43;28.52;;;-1.50;99.90;;;;;;5130749;27;20043;-88
2022/12/17 20:13:26;;;;;;;65.28;28.13;;;-1.60;99.90;;;;;;5122521;27;20484;-88
2022/12/17 20:16:03;;;;;;;66.93;28.40;;;-1.50;99.90;;;;;;5131298;27;20039;-87
2022/12/17 20:18:29;;;;;;;73.68;29.20;;;-1.50;99.90;;;;;;5116830;27;20032;-88
2022/12/17 20:21:03;;;;;;;69.10;26.88;;;-1.60;99.90;;;;;;5111237;28;20039;-88
2022/12/17 20:23:29;;;;;;;71.35;29.30;;;-1.60;99.90;;;;;;5125220;27;20043;-88
2022/12/17 20:26:07;;;;;;;64.18;26.13;;;-1.60;99.90;;;;;;5119269;27;20114;-88
2022/12/17 20:28:33;;;;;;;57.50;25.75;;;-1.60;99.90;;;;;;5144667;27;20052;-88
2022/12/17 20:31:00;;;;;;;63.85;25.98;;;-1.60;99.90;;;;;;5110763;28;20118;-88
2022/12/17 20:33:26;;;;;;;68.45;26.88;;;-1.60;99.90;;;;;;5149863;27;20824;-88
2022/12/17 20:35:52;;;;;;;61.75;27.02;;;-1.60;99.90;;;;;;5119463;27;20074;-87
2022/12/17 20:38:18;;;;;;;63.13;26.88;;;-1.60;99.90;;;;;;5140024;27;21280;-88
2022/12/17 20:40:44;;;;;;;69.40;27.55;;;-1.60;99.90;;;;;;5138049;27;20495;-88
2022/12/17 20:43:10;;;;;;;57.22;25.98;;;-1.60;99.90;;;;;;5107672;27;20118;-89
2022/12/17 20:45:35;;;;;;;59.47;25.23;;;-1.60;99.90;;;;;;5096757;27;20548;-88
2022/12/17 20:48:01;;;;;;;67.57;26.70;;;-1.60;99.90;;;;;;5114835;27;20051;-88
2022/12/17 20:50:27;;;;;;;59.72;25.92;;;-1.60;99.90;;;;;;5132945;27;20035;-88
2022/12/17 20:52:52;;;;;;;66.22;26.38;;;-1.60;99.90;;;;;;5135405;27;20060;-88
2022/12/17 20:55:18;;;;;;;61.95;26.08;;;-1.60;99.90;;;;;;5131096;27;20043;-86
2022/12/17 20:57:44;;;;;;;59.78;25.48;;;-1.60;99.90;;;;;;5143876;27;20501;-88
2022/12/17 21:00:10;;;;;;;59.95;24.83;;;-1.60;99.90;;;;;;5119860;27;20050;-88
2022/12/17 21:02:36;;;;;;;73.63;28.67;;;-1.70;99.90;;;;;;5110237;28;20039;-88
2022/12/17 21:05:03;;;;;;;71.15;27.70;;;-1.70;99.90;;;;;;5118745;27;20074;-88
2022/12/17 21:07:29;;;;;;;66.82;27.35;;;-1.70;99.90;;;;;;5110557;28;20112;-88
2022/12/17 21:09:54;;;;;;;67.50;25.33;;;-1.70;99.90;;;;;;5110598;28;20027;-88
2022/12/17 21:12:20;;;;;;;65.72;24.52;;;-1.70;99.90;;;;;;5130431;27;20027;-88
2022/12/17 21:14:45;;;;;;;70.88;27.83;;;-1.70;99.90;;;;;;5112776;27;20087;-87
2022/12/17 21:17:13;;;;;;;69.70;25.58;;;-1.70;99.90;;;;;;5139319;27;20413;-87
2022/12/17 21:19:38;;;;;;;70.25;26.90;;;-1.80;99.90;;;;;;5131526;27;20047;-87
2022/12/17 21:22:04;;;;;;;79.70;27.42;;;-1.80;99.90;;;;;;5128330;27;20053;-87
2022/12/17 21:24:30;;;;;;;60.08;24.55;;;-1.80;99.90;;;;;;5124454;27;20039;-88
2022/12/17 21:26:55;;;;;;;54.65;21.15;;;-1.80;99.90;;;;;;5131480;27;20070;-88
2022/12/17 21:29:21;;;;;;;64.50;25.63;;;-1.90;99.90;;;;;;5140520;27;20493;-88
2022/12/17 21:31:49;;;;;;;65.95;28.17;;;-1.90;99.90;;;;;;5121197;27;20038;-88
2022/12/17 21:34:23;;;;;;;71.07;27.02;;;-1.90;99.90;;;;;;5140847;27;20052;-88
2022/12/17 21:36:50;;;;;;;70.47;28.15;;;-2.00;99.90;;;;;;5138881;27;20047;-88
2022/12/17 21:39:20;;;;;;;71.72;27.50;;;-2.00;99.90;;;;;;5122035;27;20032;-88
2022/12/17 21:43:00;;;;;;;68.45;26.58;;;-2.00;99.90;;;;;;5117584;27;20023;-88
2022/12/17 21:44:31;;;;;;;59.80;23.38;;;-2.00;99.90;;;;;;5120572;28;20611;-88
2022/12/17 21:46:56;;;;;;;51.05;20.50;;;-2.00;99.90;;;;;;5101959;28;20122;-88
2022/12/17 21:49:22;;;;;;;58.90;23.50;;;-2.00;99.90;;;;;;5121190;27;20091;-88
2022/12/17 21:51:47;;;;;;;49.40;18.83;;;-2.10;99.90;;;;;;5133941;27;20067;-88
2022/12/17 21:54:13;;;;;;;57.45;21.75;;;-2.20;99.90;;;;;;5121153;28;20064;-88
2022/12/17 21:56:39;;;;;;;73.18;22.98;;;-2.30;99.90;;;;;;5110258;28;20073;-88
2022/12/17 21:59:04;;;;;;;59.53;22.85;;;-2.40;99.90;;;;;;5117076;28;20036;-87
2022/12/17 22:01:32;;;;;;;54.03;20.60;;;-2.40;99.90;;;;;;5131853;27;20043;-87
2022/12/17 22:04:00;;;;;;;48.72;17.70;;;-2.40;99.90;;;;;;5135170;27;20039;-88
2022/12/17 22:06:27;;;;;;;73.57;24.15;;;-2.40;99.90;;;;;;5134401;27;20047;-88
2022/12/17 22:08:53;;;;;;;74.72;25.33;;;-2.50;99.90;;;;;;5135049;27;20054;-87
2022/12/17 22:11:22;;;;;;;67.68;28.77;;;-2.50;99.90;;;;;;5108643;27;20122;-87
2022/12/17 22:14:01;;;;;;;71.60;27.10;;;-2.40;99.90;;;;;;5150691;27;20027;-88
2022/12/17 22:16:30;;;;;;;65.97;24.02;;;-2.40;99.90;;;;;;5153181;27;20041;-87
2022/12/17 22:18:58;;;;;;;69.35;24.30;;;-2.40;99.90;;;;;;5134599;27;20463;-87
2022/12/17 22:21:24;;;;;;;78.10;26.33;;;-2.40;99.90;;;;;;5135028;27;20149;-87
2022/12/17 22:23:49;;;;;;;78.10;27.83;;;-2.30;99.90;;;;;;5128342;27;20065;-88
2022/12/17 22:26:17;;;;;;;74.97;26.05;;;-2.30;99.90;;;;;;5131506;27;20502;-88
2022/12/17 22:28:48;;;;;;;67.47;25.35;;;-2.40;99.90;;;;;;5134393;27;20043;-87
2022/12/17 22:34:02;;;;;;;73.75;22.90;;;-2.40;99.90;;;;;;5115686;27;20412;-88
2022/12/17 22:36:29;;;;;;;79.78;23.48;;;-2.40;99.90;;;;;;5132423;27;20081;-87
2022/12/17 22:38:57;;;;;;;62.88;22.00;;;-2.50;99.90;;;;;;5078602;28;20097;-88
2022/12/17 22:44:06;;;;;;;59.80;21.25;;;-2.50;99.90;;;;;;5125830;27;20039;-88
2022/12/17 22:46:32;;;;;;;67.30;23.30;;;-2.60;99.90;;;;;;5115927;27;20043;-88
2022/12/17 22:48:58;;;;;;;56.72;23.38;;;-2.60;99.90;;;;;;5113356;27;20039;-88
2022/12/17 22:51:24;;;;;;;62.35;25.20;;;-2.60;99.90;;;;;;5113437;28;20110;-88
2022/12/17 22:53:51;;;;;;;63.38;24.77;;;-2.60;99.90;;;;;;5113505;28;20047;-88
2022/12/17 22:56:18;;;;;;;70.32;25.00;;;-2.60;99.90;;;;;;5102606;27;20106;-88
2022/12/17 22:58:44;;;;;;;64.70;22.75;;;-2.60;99.90;;;;;;5133987;27;20039;-88
2022/12/17 23:01:09;;;;;;;58.70;23.52;;;-2.60;99.90;;;;;;5100190;28;20485;-88
2022/12/17 23:03:35;;;;;;;70.78;26.23;;;-2.70;99.90;;;;;;5113060;28;20040;-88
2022/12/17 23:06:09;;;;;;;61.42;24.92;;;-2.60;99.90;;;;;;5113541;28;20039;-88
2022/12/17 23:08:34;;;;;;;57.85;20.27;;;-2.70;99.90;;;;;;5124826;27;20571;-88
2022/12/17 23:11:16;;;;;;;69.07;25.80;;;-2.60;99.90;;;;;;5133629;27;20117;-88
2022/12/17 23:13:42;;;;;;;65.00;25.25;;;-2.60;99.90;;;;;;5141839;27;20039;-88
2022/12/17 23:16:10;;;;;;;66.60;24.42;;;-2.60;99.90;;;;;;5144793;27;20038;-88
2022/12/17 23:18:35;;;;;;;61.03;21.63;;;-2.60;99.90;;;;;;5140193;27;20110;-88
2022/12/17 23:21:10;;;;;;;66.68;25.15;;;-2.60;99.90;;;;;;5124778;27;20594;-88
2022/12/17 23:23:36;;;;;;;72.78;25.40;;;-2.60;99.90;;;;;;5140046;27;20042;-88
2022/12/17 23:26:20;;;;;;;71.90;26.88;;;-2.60;99.90;;;;;;5140852;27;20403;-87
2022/12/17 23:28:47;;;;;;;69.93;23.35;;;-2.60;99.90;;;;;;5143493;27;21550;-87
2022/12/17 23:31:16;;;;;;;63.20;25.00;;;-2.60;99.90;;;;;;5129368;27;20516;-88
2022/12/17 23:33:43;;;;;;;62.53;25.52;;;-2.60;99.90;;;;;;5112811;28;20378;-88
2022/12/17 23:36:15;;;;;;;62.13;21.77;;;-2.70;99.90;;;;;;5112798;28;20718;-88
2022/12/17 23:38:41;;;;;;;47.88;19.65;;;-2.70;99.90;;;;;;5094182;28;20098;-88
2022/12/17 23:41:09;;;;;;;69.22;25.30;;;-2.70;99.90;;;;;;5112476;28;20044;-88
2022/12/17 23:43:35;;;;;;;67.38;27.45;;;-2.80;99.90;;;;;;5111919;28;20595;-87
2022/12/17 23:46:01;;;;;;;74.32;26.40;;;-2.80;99.90;;;;;;5112736;28;20039;-88
2022/12/17 23:48:32;;;;;;;77.28;28.10;;;-2.70;99.90;;;;;;5104534;27;20035;-88
2022/12/17 23:50:59;;;;;;;75.40;27.20;;;-2.70;99.90;;;;;;5133118;27;20035;-87
2022/12/17 23:53:29;;;;;;;73.95;30.60;;;-2.70;99.90;;;;;;5109973;28;20131;-88
2022/12/17 23:55:55;;;;;;;80.25;27.05;;;-2.60;99.90;;;;;;5128113;27;20109;-87
2022/12/17 23:58:21;;;;;;;73.25;27.00;;;-2.60;99.90;;;;;;5132939;27;20480;-88
